createdAt,value
2023-03-02T00:00:34.852Z,78.33
2023-03-02T00:03:02.554Z,77.99
2023-03-02T00:05:29.738Z,78.54
2023-03-02T00:07:58.567Z,78.37
2023-03-02T00:10:25.691Z,78.26
2023-03-02T00:12:53.647Z,78.38
2023-03-02T00:15:20.338Z,78.54
2023-03-02T00:17:46.978Z,78.33
2023-03-02T00:20:14.097Z,78.56
2023-03-02T00:22:42.827Z,78.59
2023-03-02T00:25:10.801Z,78.18
2023-03-02T00:27:37.398Z,78.21
2023-03-02T00:30:07.270Z,78.41
2023-03-02T00:32:34.355Z,78.25
2023-03-02T00:35:00.951Z,78.11
2023-03-02T00:37:27.505Z,78.08
2023-03-02T00:39:54.179Z,78.20
2023-03-02T00:42:21.542Z,78.32
2023-03-02T00:44:48.094Z,78.36
2023-03-02T00:47:16.023Z,78.07
2023-03-02T00:49:42.720Z,77.79
2023-03-02T00:52:09.316Z,78.56
2023-03-02T00:54:35.852Z,78.48
2023-03-02T00:57:02.401Z,77.47
2023-03-02T00:59:28.989Z,77.76
2023-03-02T01:02:00.157Z,78.08
2023-03-02T01:04:31.344Z,78.30
2023-03-02T01:06:59.114Z,78.09
2023-03-02T01:09:26.087Z,77.86
2023-03-02T01:11:52.881Z,78.39
2023-03-02T01:14:19.448Z,78.05
2023-03-02T01:16:47.363Z,78.43
2023-03-02T01:19:14.484Z,78.16
2023-03-02T01:21:42.917Z,78.00
2023-03-02T01:24:10.318Z,77.82
2023-03-02T01:26:37.443Z,77.77
2023-03-02T01:29:04.946Z,77.53
2023-03-02T01:31:31.575Z,77.91
2023-03-02T01:33:58.339Z,78.21
2023-03-02T01:36:24.969Z,78.15
2023-03-02T01:38:54.147Z,78.26
2023-03-02T01:41:20.957Z,78.01
2023-03-02T01:43:47.720Z,78.09
2023-03-02T01:46:16.043Z,78.08
2023-03-02T01:48:47.101Z,78.06
2023-03-02T01:51:17.098Z,77.97
2023-03-02T01:53:46.991Z,78.35
2023-03-02T01:56:17.308Z,78.07
2023-03-02T01:58:44.734Z,78.15
2023-03-02T02:01:15.507Z,78.21
2023-03-02T02:03:44.717Z,77.96
2023-03-02T02:06:18.425Z,77.24
2023-03-02T02:08:46.169Z,77.70
2023-03-02T02:11:13.256Z,77.62
2023-03-02T02:13:42.131Z,77.89
2023-03-02T02:16:09.075Z,77.71
2023-03-02T02:18:39.131Z,78.02
2023-03-02T02:21:07.722Z,78.03
2023-03-02T02:23:39.717Z,77.76
2023-03-02T02:26:18.110Z,77.69
2023-03-02T02:28:50.788Z,77.83
2023-03-02T02:31:22.357Z,78.06
2023-03-02T02:33:53.725Z,77.95
2023-03-02T02:36:24.685Z,77.79
2023-03-02T02:38:55.228Z,78.06
2023-03-02T02:41:27.010Z,77.79
2023-03-02T02:43:54.936Z,77.76
2023-03-02T02:46:21.780Z,77.88
2023-03-02T02:48:48.429Z,77.65
2023-03-02T02:51:21.300Z,78.17
2023-03-02T02:53:58.490Z,77.78
2023-03-02T02:56:28.445Z,78.02
2023-03-02T02:58:58.026Z,78.06
2023-03-02T03:01:26.153Z,78.00
2023-03-02T03:03:56.088Z,77.87
2023-03-02T03:06:25.793Z,77.61
2023-03-02T03:08:56.391Z,77.79
2023-03-02T03:11:26.365Z,78.22
2023-03-02T03:14:00.405Z,77.34
2023-03-02T03:16:29.095Z,77.99
2023-03-02T03:18:58.699Z,77.91
2023-03-02T03:21:25.323Z,77.78
2023-03-02T03:23:51.908Z,78.17
2023-03-02T03:26:18.460Z,78.21
2023-03-02T03:28:45.039Z,78.13
2023-03-02T03:31:13.017Z,78.40
2023-03-02T03:33:39.613Z,78.08
2023-03-02T03:36:07.069Z,77.95
2023-03-02T03:38:33.925Z,77.79
2023-03-02T03:41:01.013Z,78.09
2023-03-02T03:43:27.601Z,78.24
2023-03-02T03:45:54.178Z,78.20
2023-03-02T03:48:22.080Z,77.66
2023-03-02T03:50:48.662Z,78.63
2023-03-02T03:53:15.244Z,79.16
2023-03-02T03:55:41.851Z,78.60
2023-03-02T03:58:08.626Z,77.86
2023-03-02T04:00:35.313Z,77.83
2023-03-02T04:03:02.103Z,77.66
2023-03-02T04:05:31.662Z,77.72
2023-03-02T04:08:01.960Z,78.22
2023-03-02T04:10:29.631Z,78.47
2023-03-02T04:12:56.365Z,78.23
2023-03-02T04:15:23.530Z,77.93
2023-03-02T04:17:50.647Z,78.11
2023-03-02T04:20:18.354Z,77.14
2023-03-02T04:22:48.370Z,77.82
2023-03-02T04:25:19.724Z,77.97
2023-03-02T04:27:47.335Z,77.97
2023-03-02T04:30:15.505Z,77.96
2023-03-02T04:32:43.942Z,78.05
2023-03-02T04:35:11.000Z,78.36
2023-03-02T04:37:37.880Z,77.97
2023-03-02T04:40:07.873Z,77.99
2023-03-02T04:42:35.041Z,78.21
2023-03-02T04:45:01.687Z,78.02
2023-03-02T04:47:28.233Z,78.04
2023-03-02T04:49:56.585Z,78.34
2023-03-02T04:52:23.430Z,75.52
2023-03-02T04:54:49.985Z,78.22
2023-03-02T04:57:17.876Z,78.20
2023-03-02T04:59:44.493Z,77.80
2023-03-02T05:02:11.168Z,77.87
2023-03-02T05:04:37.932Z,78.07
2023-03-02T05:07:04.571Z,78.74
2023-03-02T05:09:31.144Z,78.02
2023-03-02T05:12:00.252Z,78.34
2023-03-02T05:14:28.698Z,78.04
2023-03-02T05:16:55.382Z,77.66
2023-03-02T05:19:22.047Z,78.41
2023-03-02T05:21:48.737Z,78.39
2023-03-02T05:24:15.470Z,75.65
2023-03-02T05:26:42.195Z,78.35
2023-03-02T05:29:08.842Z,78.43
2023-03-02T05:31:40.590Z,78.42
2023-03-02T05:34:09.815Z,78.29
2023-03-02T05:36:37.354Z,78.05
2023-03-02T05:39:04.339Z,78.31
2023-03-02T05:41:31.249Z,78.56
2023-03-02T05:43:58.100Z,78.17
2023-03-02T05:46:25.343Z,78.48
2023-03-02T05:48:53.297Z,78.19
2023-03-02T05:51:20.079Z,78.17
2023-03-02T05:53:47.314Z,78.22
2023-03-02T05:56:14.098Z,77.86
2023-03-02T05:58:40.687Z,78.56
2023-03-02T06:01:10.257Z,78.72
2023-03-02T06:03:36.863Z,78.44
2023-03-02T06:06:05.157Z,78.29
2023-03-02T06:08:31.806Z,76.44
2023-03-02T06:10:58.409Z,78.34
2023-03-02T06:13:25.202Z,78.44
2023-03-02T06:15:51.788Z,78.11
2023-03-02T06:18:18.390Z,74.19
2023-03-02T06:20:45.095Z,78.33
2023-03-02T06:23:13.121Z,78.45
2023-03-02T06:25:43.574Z,78.60
2023-03-02T06:28:10.288Z,78.21
2023-03-02T06:30:36.822Z,78.39
2023-03-02T06:33:03.608Z,78.23
2023-03-02T06:35:30.250Z,78.60
2023-03-02T06:37:56.874Z,78.50
2023-03-02T06:40:24.802Z,78.58
2023-03-02T06:42:51.428Z,78.40
2023-03-02T06:45:18.215Z,78.58
2023-03-02T06:47:44.766Z,78.41
2023-03-02T06:50:11.920Z,78.73
2023-03-02T06:52:38.613Z,78.67
2023-03-02T06:55:06.396Z,78.57
2023-03-02T06:57:34.408Z,78.58
2023-03-02T07:00:09.446Z,78.56
2023-03-02T07:02:36.351Z,78.79
2023-03-02T07:05:03.179Z,78.07
2023-03-02T07:07:29.765Z,78.50
2023-03-02T07:09:56.298Z,75.90
2023-03-02T07:12:22.874Z,79.23
2023-03-02T07:14:50.741Z,79.41
2023-03-02T07:17:17.330Z,80.05
2023-03-02T07:19:43.868Z,80.13
2023-03-02T07:22:10.796Z,81.39
2023-03-02T07:24:37.331Z,84.19
2023-03-02T07:27:04.398Z,84.35
2023-03-02T07:29:31.031Z,84.20
2023-03-02T07:32:01.732Z,80.79
2023-03-02T07:34:28.698Z,81.18
2023-03-02T07:36:55.495Z,79.18
2023-03-02T07:39:22.080Z,79.39
2023-03-02T07:41:48.692Z,78.85
2023-03-02T07:44:15.318Z,79.56
2023-03-02T07:46:42.016Z,82.51
2023-03-02T07:49:10.111Z,80.00
2023-03-02T07:51:36.683Z,79.73
2023-03-02T07:54:04.915Z,79.40
2023-03-02T07:56:31.636Z,79.48
2023-03-02T07:58:58.272Z,79.13
2023-03-02T08:01:25.043Z,78.76
2023-03-02T08:03:51.671Z,79.40
2023-03-02T08:06:19.978Z,79.51
2023-03-02T08:08:46.960Z,79.25
2023-03-02T08:11:15.860Z,78.96
2023-03-02T08:13:43.318Z,78.94
2023-03-02T08:16:12.307Z,81.25
2023-03-02T08:18:40.142Z,84.28
2023-03-02T08:21:11.452Z,84.53
2023-03-02T08:23:39.533Z,84.27
2023-03-02T08:26:06.157Z,84.47
2023-03-02T08:28:33.509Z,85.04
2023-03-02T08:31:01.732Z,87.58
2023-03-02T08:33:30.149Z,86.98
2023-03-02T08:35:57.387Z,86.14
2023-03-02T08:38:24.556Z,86.38
2023-03-02T08:40:52.984Z,83.74
2023-03-02T08:43:19.781Z,83.62
2023-03-02T08:45:51.606Z,85.12
2023-03-02T08:48:18.717Z,84.80
2023-03-02T08:50:45.326Z,85.59
2023-03-02T08:53:11.869Z,84.54
2023-03-02T08:55:38.459Z,85.13
2023-03-02T08:58:06.363Z,85.83
2023-03-02T09:00:32.894Z,85.19
2023-03-02T09:02:59.490Z,85.59
2023-03-02T09:05:26.037Z,85.17
2023-03-02T09:07:52.585Z,84.01
2023-03-02T09:10:19.502Z,84.55
2023-03-02T09:12:46.107Z,84.63
2023-03-02T09:15:14.114Z,85.98
2023-03-02T09:17:40.785Z,83.24
2023-03-02T09:20:09.027Z,83.50
2023-03-02T09:22:36.000Z,80.84
2023-03-02T09:25:02.665Z,83.07
2023-03-02T09:27:29.353Z,83.83
2023-03-02T09:29:56.125Z,84.84
2023-03-02T09:32:24.193Z,84.80
2023-03-02T09:34:50.969Z,84.60
2023-03-02T09:37:17.575Z,84.32
2023-03-02T09:39:44.214Z,85.44
2023-03-02T09:42:32.108Z,83.88
2023-03-02T09:45:24.827Z,83.68
2023-03-02T09:48:05.361Z,85.37
2023-03-02T09:50:34.524Z,83.54
2023-03-02T09:53:30.397Z,83.17
2023-03-02T09:56:02.250Z,84.70
2023-03-02T09:58:34.932Z,83.81
2023-03-02T10:01:08.708Z,81.97
2023-03-02T10:03:44.729Z,82.72
2023-03-02T10:06:12.373Z,81.06
2023-03-02T10:08:40.968Z,84.93
2023-03-02T10:11:16.654Z,86.07
2023-03-02T10:13:47.969Z,85.91
2023-03-02T10:16:25.907Z,86.98
2023-03-02T10:19:04.985Z,83.61
2023-03-02T10:21:37.365Z,81.50
2023-03-02T10:24:14.650Z,80.79
2023-03-02T10:26:43.489Z,82.35
2023-03-02T10:29:27.101Z,80.84
2023-03-02T10:31:59.431Z,80.33
2023-03-02T10:34:30.259Z,81.38
2023-03-02T10:36:57.938Z,80.89
2023-03-02T10:39:24.489Z,81.15
2023-03-02T10:41:54.531Z,79.39
2023-03-02T10:44:25.522Z,81.59
2023-03-02T10:46:53.777Z,81.85
2023-03-02T10:49:27.823Z,79.90
2023-03-02T10:51:59.303Z,78.89
2023-03-02T10:54:28.812Z,80.88
2023-03-02T10:56:58.253Z,80.25
2023-03-02T10:59:43.378Z,80.34
2023-03-02T11:02:15.789Z,80.48
2023-03-02T11:04:44.358Z,79.69
2023-03-02T11:07:15.478Z,80.85
2023-03-02T11:09:42.027Z,80.34
2023-03-02T11:12:14.499Z,80.21
2023-03-02T11:14:42.554Z,79.72
2023-03-02T11:17:33.020Z,79.43
2023-03-02T11:20:04.002Z,79.88
2023-03-02T11:22:38.538Z,81.44
2023-03-02T11:25:11.125Z,80.29
2023-03-02T11:27:42.993Z,79.86
2023-03-02T11:30:15.879Z,78.64
2023-03-02T11:32:47.758Z,79.37
2023-03-02T11:35:28.351Z,79.62
2023-03-02T11:37:59.470Z,80.25
2023-03-02T11:40:31.901Z,81.49
2023-03-02T11:43:01.050Z,80.13
2023-03-02T11:45:30.872Z,79.69
2023-03-02T11:48:05.137Z,79.64
2023-03-02T11:50:37.261Z,79.84
2023-03-02T11:53:11.858Z,79.45
2023-03-02T11:55:44.122Z,80.22
2023-03-02T11:58:17.098Z,81.27
2023-03-02T12:00:44.781Z,80.48
2023-03-02T12:03:21.442Z,79.75
2023-03-02T12:06:05.322Z,80.17
2023-03-02T12:08:38.119Z,80.71
2023-03-02T12:11:07.536Z,80.64
2023-03-02T12:13:36.468Z,80.77
2023-03-02T12:16:04.158Z,78.44
2023-03-02T12:18:45.076Z,78.81
2023-03-02T12:21:15.367Z,78.37
2023-03-02T12:23:55.744Z,79.14
2023-03-02T12:26:27.406Z,79.42
2023-03-02T12:29:00.750Z,79.59
2023-03-02T12:31:39.639Z,79.95
2023-03-02T12:34:22.859Z,80.54
2023-03-02T12:36:54.354Z,78.87
2023-03-02T12:39:32.928Z,78.47
2023-03-02T12:42:25.115Z,78.14
2023-03-02T12:45:03.022Z,77.25
2023-03-02T12:47:31.978Z,77.27
2023-03-02T12:50:02.175Z,78.53
2023-03-02T12:52:32.585Z,78.16
2023-03-02T12:55:01.361Z,77.88
2023-03-02T12:57:28.334Z,78.63
2023-03-02T12:59:56.843Z,78.21
2023-03-02T13:02:25.741Z,78.21
2023-03-02T13:04:54.195Z,78.06
2023-03-02T13:07:25.765Z,78.88
2023-03-02T13:09:57.296Z,79.42
2023-03-02T13:12:26.805Z,78.99
2023-03-02T13:14:56.075Z,79.01
2023-03-02T13:17:25.206Z,78.65
2023-03-02T13:19:52.662Z,77.24
2023-03-02T13:22:21.105Z,78.40
2023-03-02T13:24:51.472Z,78.02
2023-03-02T13:27:21.237Z,78.93
2023-03-02T13:29:48.819Z,78.64
2023-03-02T13:32:24.280Z,78.74
2023-03-02T13:34:53.771Z,79.04
2023-03-02T13:37:28.560Z,78.68
2023-03-02T13:39:56.880Z,79.29
2023-03-02T13:42:29.468Z,79.52
2023-03-02T13:44:56.227Z,79.33
2023-03-02T13:47:24.398Z,79.52
2023-03-02T13:49:51.061Z,80.85
2023-03-02T13:52:24.776Z,79.75
2023-03-02T13:54:51.379Z,80.53
2023-03-02T13:57:25.570Z,79.95
2023-03-02T13:59:53.845Z,79.85
2023-03-02T14:02:24.514Z,82.06
2023-03-02T14:04:51.725Z,80.88
2023-03-02T14:07:19.245Z,80.35
2023-03-02T14:09:46.490Z,80.19
2023-03-02T14:12:22.368Z,81.13
2023-03-02T14:14:49.023Z,83.07
2023-03-02T14:17:22.912Z,81.56
2023-03-02T14:19:52.832Z,81.35
2023-03-02T14:22:19.802Z,80.48
2023-03-02T14:24:49.343Z,80.17
2023-03-02T14:27:17.379Z,79.80
2023-03-02T14:29:45.246Z,79.51
2023-03-02T14:32:15.189Z,79.68
2023-03-02T14:34:43.196Z,79.46
2023-03-02T14:37:14.120Z,79.50
2023-03-02T14:39:43.425Z,81.13
2023-03-02T14:42:12.738Z,80.56
2023-03-02T14:44:39.580Z,80.15
2023-03-02T14:47:07.094Z,79.66
2023-03-02T14:49:33.771Z,79.62
2023-03-02T14:52:05.091Z,80.67
2023-03-02T14:54:38.421Z,78.90
2023-03-02T14:57:07.875Z,79.04
2023-03-02T14:59:34.483Z,79.10
2023-03-02T15:02:10.393Z,78.74
2023-03-02T15:04:45.939Z,79.24
2023-03-02T15:07:16.259Z,79.17
2023-03-02T15:09:45.826Z,79.05
2023-03-02T15:12:12.372Z,79.66
2023-03-02T15:14:39.152Z,79.24
2023-03-02T15:17:05.814Z,80.04
2023-03-02T15:19:32.589Z,79.97
2023-03-02T15:21:59.154Z,80.07
2023-03-02T15:24:27.055Z,79.89
2023-03-02T15:26:53.830Z,79.93
2023-03-02T15:29:21.178Z,80.14
2023-03-02T15:31:47.936Z,82.71
2023-03-02T15:34:16.524Z,82.07
2023-03-02T15:36:43.070Z,81.35
2023-03-02T15:39:12.627Z,80.50
2023-03-02T15:41:42.250Z,80.26
2023-03-02T15:44:17.260Z,80.20
2023-03-02T15:46:43.835Z,79.90
2023-03-02T15:49:10.375Z,79.74
2023-03-02T15:51:36.916Z,80.15
2023-03-02T15:54:03.594Z,80.38
2023-03-02T15:56:38.848Z,79.21
2023-03-02T15:59:12.018Z,79.85
2023-03-02T16:01:38.619Z,80.67
2023-03-02T16:04:05.187Z,79.54
2023-03-02T16:06:31.757Z,79.45
2023-03-02T16:08:58.542Z,79.42
2023-03-02T16:11:25.181Z,79.29
2023-03-02T16:13:52.125Z,79.68
2023-03-02T16:16:21.586Z,79.26
2023-03-02T16:18:51.603Z,80.11
2023-03-02T16:21:18.602Z,80.90
2023-03-02T16:23:45.516Z,80.33
2023-03-02T16:26:14.608Z,80.06
2023-03-02T16:28:41.412Z,79.89
2023-03-02T16:31:10.372Z,81.51
2023-03-02T16:33:38.836Z,81.25
2023-03-02T16:36:06.145Z,80.41
2023-03-02T16:38:33.323Z,81.49
2023-03-02T16:41:00.156Z,81.31
2023-03-02T16:43:26.779Z,80.86
2023-03-02T16:45:54.194Z,80.10
2023-03-02T16:48:21.124Z,80.30
2023-03-02T16:50:54.939Z,81.65
2023-03-02T16:53:21.524Z,81.75
2023-03-02T16:55:49.036Z,80.52
2023-03-02T16:58:15.593Z,80.30
2023-03-02T17:00:42.670Z,79.92
2023-03-02T17:03:09.243Z,79.91
2023-03-02T17:05:35.937Z,79.84
2023-03-02T17:08:05.493Z,79.53
2023-03-02T17:10:32.136Z,79.67
2023-03-02T17:12:58.689Z,79.75
2023-03-02T17:15:25.233Z,79.74
2023-03-02T17:17:51.775Z,79.71
2023-03-02T17:20:18.741Z,79.69
2023-03-02T17:22:45.283Z,79.62
2023-03-02T17:25:13.579Z,79.64
2023-03-02T17:27:40.200Z,79.55
2023-03-02T17:30:08.197Z,79.47
2023-03-02T17:32:34.811Z,79.33
2023-03-02T17:35:01.454Z,79.68
2023-03-02T17:37:29.967Z,79.93
2023-03-02T17:39:56.694Z,79.62
2023-03-02T17:42:24.693Z,79.76
2023-03-02T17:44:51.368Z,79.82
2023-03-02T17:47:18.485Z,79.44
2023-03-02T17:49:45.200Z,79.51
2023-03-02T17:52:12.673Z,79.45
2023-03-02T17:54:39.486Z,79.37
2023-03-02T17:57:06.085Z,79.50
2023-03-02T17:59:34.482Z,79.36
2023-03-02T18:02:01.620Z,79.34
2023-03-02T18:04:28.614Z,79.38
2023-03-02T18:06:55.232Z,79.21
2023-03-02T18:09:21.879Z,79.35
2023-03-02T18:11:48.681Z,79.36
2023-03-02T18:14:18.096Z,79.24
2023-03-02T18:16:46.384Z,79.22
2023-03-02T18:19:13.161Z,79.74
2023-03-02T18:21:41.724Z,79.90
2023-03-02T18:24:09.564Z,79.92
2023-03-02T18:26:36.723Z,79.99
2023-03-02T18:29:03.436Z,80.23
2023-03-02T18:31:33.845Z,80.34
2023-03-02T18:34:01.845Z,80.35
2023-03-02T18:36:29.516Z,80.20
2023-03-02T18:38:56.558Z,80.52
2023-03-02T18:41:23.983Z,80.62
2023-03-02T18:43:51.120Z,80.45
2023-03-02T18:46:21.109Z,80.59
2023-03-02T18:48:49.468Z,80.72
2023-03-02T18:51:17.797Z,80.91
2023-03-02T18:53:44.649Z,80.91
2023-03-02T18:56:11.774Z,81.06
2023-03-02T18:58:38.425Z,80.76
2023-03-02T19:01:06.077Z,81.01
2023-03-02T19:03:35.147Z,81.06
2023-03-02T19:06:01.905Z,80.51
2023-03-02T19:08:30.570Z,81.03
2023-03-02T19:10:57.254Z,80.51
2023-03-02T19:13:24.412Z,81.14
2023-03-02T19:15:54.691Z,80.75
2023-03-02T19:18:23.583Z,81.09
2023-03-02T19:20:51.727Z,81.13
2023-03-02T19:23:18.575Z,81.20
2023-03-02T19:25:47.575Z,80.74
2023-03-02T19:28:14.860Z,81.10
2023-03-02T19:30:41.510Z,81.09
2023-03-02T19:33:09.730Z,81.22
2023-03-02T19:35:38.091Z,81.00
2023-03-02T19:38:05.392Z,81.21
2023-03-02T19:40:32.338Z,80.94
2023-03-02T19:43:00.758Z,80.80
2023-03-02T19:45:29.636Z,80.86
2023-03-02T19:47:57.710Z,80.88
2023-03-02T19:50:25.616Z,80.64
2023-03-02T19:52:54.676Z,80.84
2023-03-02T19:55:22.273Z,80.99
2023-03-02T19:57:51.443Z,80.92
2023-03-02T20:00:20.558Z,80.63
2023-03-02T20:02:47.237Z,80.82
2023-03-02T20:05:14.719Z,80.54
2023-03-02T20:07:42.102Z,82.82
2023-03-02T20:10:10.458Z,82.63
2023-03-02T20:12:37.508Z,81.47
2023-03-02T20:15:05.770Z,81.25
2023-03-02T20:17:33.981Z,81.12
2023-03-02T20:20:01.279Z,81.02
2023-03-02T20:22:28.166Z,81.34
2023-03-02T20:24:54.811Z,80.55
2023-03-02T20:27:21.483Z,81.01
2023-03-02T20:29:48.282Z,80.52
2023-03-02T20:32:15.572Z,81.00
2023-03-02T20:34:43.958Z,80.92
2023-03-02T20:37:12.367Z,80.65
2023-03-02T20:39:40.418Z,80.93
2023-03-02T20:42:08.256Z,80.65
2023-03-02T20:44:35.654Z,80.83
2023-03-02T20:47:08.259Z,80.77
2023-03-02T20:49:36.916Z,80.89
2023-03-02T20:52:06.738Z,80.84
2023-03-02T20:54:36.235Z,80.67
2023-03-02T20:57:05.563Z,80.65
2023-03-02T20:59:32.544Z,80.81
2023-03-02T21:01:59.217Z,80.58
2023-03-02T21:04:26.307Z,80.93
2023-03-02T21:06:53.590Z,80.58
2023-03-02T21:09:21.714Z,80.63
2023-03-02T21:11:48.514Z,80.74
2023-03-02T21:14:15.446Z,80.28
2023-03-02T21:16:43.751Z,80.62
2023-03-02T21:19:14.118Z,80.31
2023-03-02T21:21:42.547Z,80.46
2023-03-02T21:24:10.652Z,80.51
2023-03-02T21:26:39.122Z,80.64
2023-03-02T21:29:06.378Z,80.38
2023-03-02T21:31:33.188Z,80.40
2023-03-02T21:34:00.601Z,80.53
2023-03-02T21:36:27.645Z,80.39
2023-03-02T21:38:54.377Z,80.54
2023-03-02T21:41:21.455Z,80.29
2023-03-02T21:43:50.039Z,80.63
2023-03-02T21:46:19.772Z,80.89
2023-03-02T21:48:46.861Z,80.40
2023-03-02T21:51:14.014Z,80.52
2023-03-02T21:53:40.673Z,80.78
2023-03-02T21:56:07.779Z,80.52
2023-03-02T21:58:34.677Z,80.21
2023-03-02T22:01:02.745Z,80.60
2023-03-02T22:03:29.330Z,80.14
2023-03-02T22:05:55.942Z,80.32
2023-03-02T22:08:22.636Z,80.24
2023-03-02T22:10:50.963Z,80.03
2023-03-02T22:13:21.801Z,80.52
2023-03-02T22:15:49.631Z,80.32
2023-03-02T22:18:20.287Z,80.10
2023-03-02T22:20:49.185Z,79.83
2023-03-02T22:23:18.117Z,79.81
2023-03-02T22:25:44.819Z,80.10
2023-03-02T22:28:16.795Z,80.21
2023-03-02T22:30:43.429Z,80.44
2023-03-02T22:33:18.581Z,80.13
2023-03-02T22:35:45.767Z,80.27
2023-03-02T22:38:17.931Z,80.20
2023-03-02T22:40:44.499Z,80.29
2023-03-02T22:43:19.267Z,80.25
2023-03-02T22:45:45.815Z,79.69
2023-03-02T22:48:14.965Z,80.29
2023-03-02T22:50:45.209Z,79.79
2023-03-02T22:53:24.852Z,80.05
2023-03-02T22:55:54.631Z,80.40
2023-03-02T22:58:32.245Z,79.85
2023-03-02T23:00:59.953Z,79.86
2023-03-02T23:03:37.033Z,79.97
2023-03-02T23:06:19.467Z,80.04
2023-03-02T23:08:46.107Z,80.26
2023-03-02T23:11:16.617Z,80.20
2023-03-02T23:13:43.409Z,80.08
2023-03-02T23:16:15.937Z,80.27
2023-03-02T23:18:43.700Z,80.06
2023-03-02T23:21:18.349Z,80.54
2023-03-02T23:23:44.979Z,79.85
2023-03-02T23:26:11.694Z,80.33
2023-03-02T23:28:38.391Z,80.15
2023-03-02T23:31:05.453Z,77.02
2023-03-02T23:33:32.108Z,80.17
2023-03-02T23:35:58.857Z,79.83
2023-03-02T23:38:26.728Z,79.90
2023-03-02T23:40:54.261Z,80.00
2023-03-02T23:43:20.854Z,80.00
2023-03-02T23:45:47.479Z,80.40
2023-03-02T23:48:14.032Z,79.89
2023-03-02T23:50:40.827Z,80.12
2023-03-02T23:53:07.488Z,80.22
2023-03-02T23:55:36.306Z,79.88
2023-03-02T23:58:02.879Z,79.87
